createdAt,value
2022-10-05T00:00:07.178Z,85.36
2022-10-05T00:04:33.036Z,85.33
2022-10-05T00:08:36.553Z,85.52
2022-10-05T00:12:39.863Z,85.56
2022-10-05T00:16:43.349Z,86.27
2022-10-05T00:20:48.627Z,86.81
2022-10-05T00:24:58.086Z,87.17
2022-10-05T00:29:02.095Z,87.66
2022-10-05T00:33:06.168Z,87.64
2022-10-05T00:37:09.880Z,87.62
2022-10-05T00:41:30.152Z,87.79
2022-10-05T00:45:40.887Z,88.23
2022-10-05T00:50:03.497Z,88.35
2022-10-05T00:54:17.445Z,88.31
2022-10-05T00:58:30.865Z,88.09
2022-10-05T01:03:06.327Z,87.99
2022-10-05T01:07:44.984Z,88.10
2022-10-05T01:12:09.418Z,88.13
2022-10-05T01:16:27.433Z,87.82
2022-10-05T01:20:51.795Z,87.90
2022-10-05T01:25:13.714Z,88.10
2022-10-05T01:29:29.053Z,88.09
2022-10-05T01:33:58.847Z,87.78
2022-10-05T01:38:25.883Z,87.52
2022-10-05T01:42:59.857Z,87.61
2022-10-05T01:47:28.137Z,87.93
2022-10-05T01:51:43.764Z,88.08
2022-10-05T01:56:09.902Z,88.28
2022-10-05T02:00:16.892Z,88.24
2022-10-05T02:09:14.756Z,87.78
2022-10-05T02:13:53.538Z,88.15
2022-10-05T02:18:07.119Z,88.35
2022-10-05T02:22:31.006Z,88.52
2022-10-05T02:26:37.378Z,88.25
2022-10-05T02:30:47.073Z,88.26
2022-10-05T02:34:50.568Z,88.56
2022-10-05T02:39:11.611Z,88.35
2022-10-05T02:43:49.321Z,88.53
2022-10-05T02:48:14.620Z,88.90
2022-10-05T02:52:30.116Z,88.87
2022-10-05T02:56:52.312Z,88.77
2022-10-05T03:01:32.713Z,88.95
2022-10-05T03:05:47.125Z,89.17
2022-10-05T03:10:03.295Z,88.97
2022-10-05T03:14:37.580Z,88.82
2022-10-05T03:19:20.584Z,88.60
2022-10-05T03:23:47.293Z,88.73
2022-10-05T03:28:00.703Z,88.53
2022-10-05T03:32:32.500Z,88.80
2022-10-05T03:37:07.251Z,89.10
2022-10-05T03:41:36.930Z,88.83
2022-10-05T03:46:13.450Z,88.66
2022-10-05T03:50:40.920Z,89.03
2022-10-05T03:54:56.894Z,89.14
2022-10-05T03:59:27.733Z,89.41
2022-10-05T04:03:48.481Z,89.44
2022-10-05T04:08:13.823Z,89.59
2022-10-05T04:12:27.930Z,89.46
2022-10-05T04:16:42.185Z,89.46
2022-10-05T04:20:54.681Z,89.64
2022-10-05T04:25:29.047Z,89.53
2022-10-05T04:29:51.108Z,89.15
2022-10-05T04:34:10.697Z,88.99
2022-10-05T04:38:52.068Z,88.99
2022-10-05T04:43:13.853Z,89.26
2022-10-05T04:47:42.441Z,89.65
2022-10-05T04:52:26.049Z,89.58
2022-10-05T04:56:40.479Z,89.58
2022-10-05T05:00:47.050Z,89.68
2022-10-05T05:05:29.487Z,89.80
2022-10-05T05:09:55.010Z,90.24
2022-10-05T05:14:14.786Z,90.11
2022-10-05T05:18:28.039Z,90.00
2022-10-05T05:22:55.863Z,89.65
2022-10-05T05:27:04.483Z,90.03
2022-10-05T05:31:24.813Z,89.92
2022-10-05T05:36:01.349Z,90.29
2022-10-05T05:40:25.793Z,90.53
2022-10-05T05:44:43.147Z,90.60
2022-10-05T05:48:47.835Z,90.46
2022-10-05T05:52:59.132Z,90.54
2022-10-05T05:57:15.893Z,90.81
2022-10-05T06:01:39.472Z,91.04
2022-10-05T06:05:52.650Z,91.07
2022-10-05T06:10:06.701Z,90.99
2022-10-05T06:14:25.550Z,91.23
2022-10-05T06:18:32.829Z,91.15
2022-10-05T06:22:42.116Z,91.09
2022-10-05T06:26:55.133Z,91.14
2022-10-05T06:31:24.692Z,91.04
2022-10-05T06:35:39.958Z,91.07
2022-10-05T06:40:01.292Z,91.27
2022-10-05T06:44:17.039Z,91.39
2022-10-05T06:48:54.962Z,91.43
2022-10-05T06:53:47.883Z,91.30
2022-10-05T06:58:28.027Z,91.12
2022-10-05T07:02:50.121Z,91.22
2022-10-05T07:07:06.242Z,91.14
2022-10-05T07:11:32.135Z,90.78
2022-10-05T07:15:54.013Z,90.86
2022-10-05T07:20:38.513Z,90.83
2022-10-05T07:25:06.181Z,91.04
2022-10-05T07:29:31.850Z,90.93
2022-10-05T07:34:03.564Z,90.70
2022-10-05T07:38:33.226Z,90.51
2022-10-05T07:42:52.001Z,90.35
2022-10-05T07:47:15.585Z,90.30
2022-10-05T07:51:34.204Z,90.34
2022-10-05T07:55:53.392Z,90.13
2022-10-05T08:00:06.630Z,90.05
2022-10-05T08:04:28.602Z,89.98
2022-10-05T08:08:48.304Z,89.81
2022-10-05T08:13:16.765Z,89.65
2022-10-05T08:17:34.556Z,89.49
2022-10-05T08:21:45.042Z,89.57
2022-10-05T08:26:15.529Z,89.32
2022-10-05T08:30:19.665Z,89.16
2022-10-05T08:34:56.320Z,88.93
2022-10-05T08:39:04.206Z,88.52
2022-10-05T08:43:29.579Z,88.23
2022-10-05T08:48:05.137Z,88.04
2022-10-05T08:52:21.234Z,88.03
2022-10-05T08:56:53.362Z,88.00
2022-10-05T09:01:05.139Z,87.45
2022-10-05T09:05:39.664Z,86.76
2022-10-05T09:09:52.081Z,86.31
2022-10-05T09:14:16.099Z,85.80
2022-10-05T09:18:50.062Z,85.54
2022-10-05T09:23:01.818Z,85.25
2022-10-05T09:27:18.153Z,84.83
2022-10-05T09:32:05.644Z,84.47
2022-10-05T09:36:24.241Z,84.36
2022-10-05T09:40:48.473Z,84.28
2022-10-05T09:45:07.667Z,83.99
2022-10-05T09:49:36.129Z,83.64
2022-10-05T09:53:51.223Z,83.42
2022-10-05T09:58:28.980Z,83.31
2022-10-05T10:02:35.147Z,83.03
2022-10-05T10:06:48.139Z,82.92
2022-10-05T10:11:10.379Z,82.70
2022-10-05T10:15:43.141Z,82.56
2022-10-05T10:20:08.327Z,82.66
2022-10-05T10:24:52.339Z,82.29
2022-10-05T10:29:22.048Z,82.24
2022-10-05T10:33:44.335Z,82.05
2022-10-05T10:38:13.654Z,81.58
2022-10-05T10:42:56.575Z,81.54
2022-10-05T10:47:27.753Z,81.18
2022-10-05T10:51:41.569Z,81.31
2022-10-05T10:56:22.170Z,81.04
2022-10-05T11:00:38.866Z,80.62
2022-10-05T11:05:14.193Z,80.05
2022-10-05T11:09:25.626Z,79.93
2022-10-05T11:13:39.035Z,80.04
2022-10-05T11:18:11.508Z,80.11
2022-10-05T11:22:52.116Z,79.58
2022-10-05T11:27:28.666Z,78.82
2022-10-05T11:31:57.983Z,78.76
2022-10-05T11:36:43.116Z,78.27
2022-10-05T11:41:29.669Z,78.03
2022-10-05T11:46:20.518Z,78.05
2022-10-05T11:50:42.278Z,77.65
2022-10-05T11:55:16.199Z,77.24
2022-10-05T11:59:27.246Z,76.74
2022-10-05T12:03:33.455Z,76.45
2022-10-05T12:07:51.173Z,76.33
2022-10-05T12:12:27.477Z,76.31
2022-10-05T12:17:00.952Z,76.15
2022-10-05T12:21:10.145Z,76.24
2022-10-05T12:25:22.420Z,76.07
2022-10-05T12:29:44.911Z,75.97
2022-10-05T12:33:54.216Z,76.07
2022-10-05T12:38:11.018Z,76.02
2022-10-05T12:42:41.924Z,75.41
2022-10-05T12:46:52.148Z,75.01
2022-10-05T12:51:14.696Z,74.64
2022-10-05T12:55:37.021Z,74.57
2022-10-05T13:00:02.390Z,74.59
2022-10-05T13:04:18.073Z,74.36
2022-10-05T13:08:42.509Z,74.34
2022-10-05T13:12:56.611Z,74.28
2022-10-05T13:17:10.950Z,74.08
2022-10-05T13:21:28.133Z,73.82
2022-10-05T13:26:08.153Z,73.95
2022-10-05T13:30:21.317Z,73.84
2022-10-05T13:34:55.845Z,73.89
2022-10-05T13:39:08.729Z,73.89
2022-10-05T13:47:59.974Z,74.02
2022-10-05T13:52:18.561Z,73.89
2022-10-05T13:56:23.134Z,73.98
2022-10-05T14:00:27.477Z,74.14
2022-10-05T14:04:52.530Z,74.16
2022-10-05T14:08:58.048Z,74.40
2022-10-05T14:13:21.949Z,74.43
2022-10-05T14:17:41.470Z,74.65
2022-10-05T14:22:02.452Z,74.81
2022-10-05T14:26:19.839Z,74.88
2022-10-05T14:30:26.024Z,75.08
2022-10-05T14:34:35.863Z,75.10
2022-10-05T14:38:55.399Z,75.18
2022-10-05T14:43:17.218Z,75.31
2022-10-05T14:47:24.481Z,75.48
2022-10-05T14:51:32.314Z,75.55
2022-10-05T14:55:47.958Z,75.77
2022-10-05T15:00:18.889Z,75.90
2022-10-05T15:04:27.817Z,76.28
2022-10-05T15:08:49.090Z,76.33
2022-10-05T15:13:15.850Z,76.40
2022-10-05T15:17:40.801Z,76.44
2022-10-05T15:22:02.085Z,76.50
2022-10-05T15:26:08.144Z,76.64
2022-10-05T15:30:18.441Z,76.78
2022-10-05T15:34:30.371Z,76.85
2022-10-05T15:38:41.733Z,77.00
2022-10-05T15:42:45.578Z,76.96
2022-10-05T15:47:39.014Z,77.28
2022-10-05T15:51:56.766Z,77.58
2022-10-05T15:56:20.853Z,77.66
2022-10-05T16:00:27.212Z,78.10
2022-10-05T16:04:42.896Z,78.42
2022-10-05T16:08:55.003Z,78.70
2022-10-05T16:13:01.070Z,78.80
2022-10-05T16:17:10.991Z,78.95
2022-10-05T16:21:44.273Z,78.85
2022-10-05T16:26:02.865Z,78.84
2022-10-05T16:30:09.771Z,78.93
2022-10-05T16:34:31.881Z,79.12
2022-10-05T16:39:14.465Z,79.29
2022-10-05T16:43:23.282Z,79.30
2022-10-05T16:47:37.934Z,79.44
2022-10-05T16:52:07.153Z,79.51
2022-10-05T16:56:13.924Z,79.52
2022-10-05T17:00:38.981Z,79.53
2022-10-05T17:05:01.144Z,79.44
2022-10-05T17:09:22.862Z,79.49
2022-10-05T17:13:41.350Z,79.59
2022-10-05T17:18:16.820Z,79.94
2022-10-05T17:22:34.737Z,80.07
2022-10-05T17:26:57.829Z,80.08
2022-10-05T17:31:20.706Z,80.12
2022-10-05T17:35:52.165Z,80.08
2022-10-05T17:39:56.395Z,80.07
2022-10-05T17:44:21.447Z,80.33
2022-10-05T17:49:06.842Z,80.32
2022-10-05T17:53:53.769Z,80.33
2022-10-05T17:58:00.043Z,80.34
2022-10-05T18:02:27.084Z,80.51
2022-10-05T18:06:33.994Z,80.63
2022-10-05T18:10:41.270Z,80.61
2022-10-05T18:15:05.862Z,80.63
2022-10-05T18:19:17.012Z,80.62
2022-10-05T18:23:25.744Z,80.71
2022-10-05T18:27:50.665Z,80.90
2022-10-05T18:32:03.075Z,80.90
2022-10-05T18:36:29.962Z,80.88
2022-10-05T18:40:50.583Z,80.93
2022-10-05T18:45:23.056Z,81.04
2022-10-05T18:50:08.138Z,81.09
2022-10-05T18:54:31.527Z,81.15
2022-10-05T18:58:41.345Z,81.10
2022-10-05T19:02:52.433Z,81.17
2022-10-05T19:07:30.270Z,81.28
2022-10-05T19:11:46.787Z,81.35
2022-10-05T19:16:11.946Z,81.34
2022-10-05T19:20:34.514Z,81.47
2022-10-05T19:25:06.406Z,81.46
2022-10-05T19:29:37.208Z,81.62
2022-10-05T19:33:56.293Z,81.79
2022-10-05T19:38:14.512Z,81.75
2022-10-05T19:42:42.722Z,81.75
2022-10-05T19:47:05.580Z,81.77
2022-10-05T19:51:33.115Z,82.04
2022-10-05T19:55:44.229Z,82.17
2022-10-05T19:59:48.746Z,82.10
2022-10-05T20:03:54.101Z,82.04
2022-10-05T20:07:58.285Z,82.03
2022-10-05T20:12:01.783Z,82.07
2022-10-05T20:16:29.294Z,82.10
2022-10-05T20:20:47.157Z,82.14
2022-10-05T20:24:58.396Z,82.18
2022-10-05T20:29:01.694Z,82.29
2022-10-05T20:33:10.794Z,82.49
2022-10-05T20:37:16.914Z,82.56
2022-10-05T20:41:20.268Z,82.65
2022-10-05T20:45:23.906Z,82.73
2022-10-05T20:49:28.838Z,82.69
2022-10-05T20:53:32.264Z,82.74
2022-10-05T20:57:38.801Z,82.82
2022-10-05T21:01:46.471Z,82.91
2022-10-05T21:05:55.414Z,82.99
2022-10-05T21:09:59.340Z,83.10
2022-10-05T21:14:05.681Z,82.89
2022-10-05T21:18:09.287Z,82.98
2022-10-05T21:22:12.612Z,82.96
2022-10-05T21:26:16.880Z,83.12
2022-10-05T21:30:20.359Z,83.13
2022-10-05T21:34:23.722Z,83.15
2022-10-05T21:38:28.508Z,83.23
2022-10-05T21:42:32.500Z,83.02
2022-10-05T21:46:36.952Z,83.30
2022-10-05T21:50:40.997Z,83.29
2022-10-05T21:54:44.398Z,83.36
2022-10-05T21:58:48.537Z,83.45
2022-10-05T22:02:51.875Z,83.66
2022-10-05T22:06:56.506Z,83.42
2022-10-05T22:11:01.859Z,83.36
2022-10-05T22:15:07.629Z,82.91
2022-10-05T22:19:18.986Z,83.18
2022-10-05T22:23:22.357Z,82.95
2022-10-05T22:27:29.563Z,83.33
2022-10-05T22:31:33.067Z,83.22
2022-10-05T22:35:37.021Z,83.82
2022-10-05T22:39:40.770Z,83.60
2022-10-05T22:43:44.618Z,83.85
2022-10-05T22:47:48.239Z,83.88
2022-10-05T22:51:51.711Z,84.00
2022-10-05T22:55:55.020Z,83.74
2022-10-05T22:59:58.341Z,83.87
2022-10-05T23:04:02.097Z,83.82
2022-10-05T23:08:05.415Z,83.64
2022-10-05T23:12:08.721Z,83.50
2022-10-05T23:16:17.490Z,83.71
2022-10-05T23:20:20.823Z,83.94
2022-10-05T23:24:24.153Z,84.19
2022-10-05T23:28:29.061Z,84.29
2022-10-05T23:32:32.887Z,84.38
2022-10-05T23:36:36.267Z,84.28
2022-10-05T23:40:39.572Z,84.35
2022-10-05T23:44:42.938Z,84.21
2022-10-05T23:48:46.289Z,84.11
2022-10-05T23:52:49.695Z,84.19
2022-10-05T23:56:53.065Z,84.36
